createdAt,value
2023-03-27T00:00:13.463Z,9.00
2023-03-27T00:02:48.863Z,8.90
2023-03-27T00:05:21.384Z,8.90
2023-03-27T00:07:55.881Z,8.90
2023-03-27T00:10:29.022Z,8.80
2023-03-27T00:13:03.531Z,8.60
2023-03-27T00:15:39.840Z,8.60
2023-03-27T00:18:13.504Z,8.50
2023-03-27T00:20:45.763Z,8.40
2023-03-27T00:23:20.114Z,8.40
2023-03-27T00:25:52.381Z,8.30
2023-03-27T00:28:27.318Z,8.30
2023-03-27T00:31:02.531Z,8.20
2023-03-27T00:33:34.707Z,8.10
2023-03-27T00:36:07.879Z,8.10
2023-03-27T00:38:40.102Z,8.00
2023-03-27T00:41:12.904Z,8.00
2023-03-27T00:43:45.498Z,7.90
2023-03-27T00:46:32.057Z,7.90
2023-03-27T00:49:08.407Z,7.80
2023-03-27T00:51:41.264Z,7.80
2023-03-27T00:54:16.416Z,7.80
2023-03-27T00:56:50.092Z,7.70
2023-03-27T00:59:23.740Z,7.60
2023-03-27T01:01:58.884Z,7.60
2023-03-27T01:04:31.986Z,7.50
2023-03-27T01:07:07.031Z,7.50
2023-03-27T01:09:39.204Z,7.50
2023-03-27T01:12:22.809Z,7.50
2023-03-27T01:15:16.154Z,7.40
2023-03-27T01:18:02.722Z,7.40
2023-03-27T01:21:08.574Z,7.30
2023-03-27T01:24:05.724Z,7.30
2023-03-27T01:26:58.455Z,7.30
2023-03-27T01:29:47.105Z,7.30
2023-03-27T01:32:46.680Z,7.20
2023-03-27T01:35:52.943Z,7.30
2023-03-27T01:38:54.763Z,7.30
2023-03-27T01:41:33.452Z,7.20
2023-03-27T01:44:14.164Z,7.20
2023-03-27T01:46:50.356Z,7.20
2023-03-27T01:49:28.288Z,7.20
2023-03-27T01:52:03.634Z,7.20
2023-03-27T01:54:38.445Z,7.20
2023-03-27T01:57:22.354Z,7.10
2023-03-27T02:00:17.510Z,7.20
2023-03-27T02:02:56.076Z,7.20
2023-03-27T02:05:32.671Z,7.10
2023-03-27T02:08:10.687Z,7.10
2023-03-27T02:10:48.307Z,7.10
2023-03-27T02:13:27.159Z,7.10
2023-03-27T02:16:02.693Z,7.10
2023-03-27T02:18:38.191Z,7.10
2023-03-27T02:21:10.268Z,7.10
2023-03-27T02:23:43.696Z,7.00
2023-03-27T02:26:15.913Z,7.00
2023-03-27T02:29:08.463Z,6.90
2023-03-27T02:32:02.079Z,6.90
2023-03-27T02:34:50.516Z,6.80
2023-03-27T02:37:33.043Z,6.80
2023-03-27T02:40:10.638Z,6.70
2023-03-27T02:42:46.146Z,6.70
2023-03-27T02:45:24.222Z,6.70
2023-03-27T02:47:58.393Z,6.60
2023-03-27T02:50:31.973Z,6.60
2023-03-27T02:53:04.976Z,6.60
2023-03-27T02:55:39.152Z,6.60
2023-03-27T02:58:13.269Z,6.60
2023-03-27T03:00:49.205Z,6.50
2023-03-27T03:03:28.106Z,6.50
2023-03-27T03:06:00.418Z,6.50
2023-03-27T03:08:38.718Z,6.50
2023-03-27T03:11:14.436Z,6.40
2023-03-27T03:13:46.550Z,6.40
2023-03-27T03:16:21.247Z,6.40
2023-03-27T03:18:53.232Z,6.40
2023-03-27T03:21:25.614Z,6.40
2023-03-27T03:23:59.272Z,6.40
2023-03-27T03:26:32.437Z,6.40
2023-03-27T03:29:04.729Z,6.40
2023-03-27T03:31:45.002Z,6.40
2023-03-27T03:34:18.645Z,6.40
2023-03-27T03:36:50.852Z,6.40
2023-03-27T03:39:22.827Z,6.40
2023-03-27T03:41:54.856Z,6.40
2023-03-27T03:44:26.849Z,6.40
2023-03-27T03:47:01.389Z,6.30
2023-03-27T03:49:33.274Z,6.30
2023-03-27T03:52:05.420Z,6.30
2023-03-27T03:54:38.880Z,6.30
2023-03-27T03:57:11.102Z,6.30
2023-03-27T03:59:43.418Z,6.20
2023-03-27T04:02:30.063Z,6.20
2023-03-27T04:05:08.787Z,6.20
2023-03-27T04:07:42.552Z,6.20
2023-03-27T04:10:14.805Z,6.10
2023-03-27T04:12:47.638Z,6.10
2023-03-27T04:15:20.042Z,6.10
2023-03-27T04:17:54.847Z,6.00
2023-03-27T04:20:27.025Z,7.00
2023-03-27T04:23:02.375Z,6.00
2023-03-27T04:25:34.557Z,5.90
2023-03-27T04:28:06.656Z,5.90
2023-03-27T04:30:38.892Z,5.90
2023-03-27T04:33:19.356Z,5.80
2023-03-27T04:36:06.176Z,5.80
2023-03-27T04:38:40.993Z,5.80
2023-03-27T04:41:13.074Z,5.70
2023-03-27T04:43:46.315Z,5.70
2023-03-27T04:46:18.544Z,5.70
2023-03-27T04:48:53.708Z,5.60
2023-03-27T04:51:26.864Z,5.60
2023-03-27T04:53:59.007Z,5.60
2023-03-27T04:56:34.010Z,5.60
2023-03-27T04:59:06.187Z,5.50
2023-03-27T05:01:38.323Z,5.50
2023-03-27T05:04:13.033Z,5.50
2023-03-27T05:06:45.112Z,5.50
2023-03-27T05:09:17.383Z,5.40
2023-03-27T05:11:50.404Z,5.40
2023-03-27T05:14:23.697Z,5.40
2023-03-27T05:16:58.038Z,5.30
2023-03-27T05:19:32.695Z,5.30
2023-03-27T05:22:04.870Z,5.30
2023-03-27T05:24:37.948Z,5.20
2023-03-27T05:27:10.454Z,5.20
2023-03-27T05:29:47.063Z,5.20
2023-03-27T05:32:19.950Z,5.20
2023-03-27T05:34:57.352Z,5.10
2023-03-27T05:37:29.446Z,5.10
2023-03-27T05:40:01.580Z,5.20
2023-03-27T05:42:33.740Z,5.10
2023-03-27T05:45:06.789Z,5.00
2023-03-27T05:47:44.825Z,4.90
2023-03-27T05:50:21.385Z,4.90
2023-03-27T05:52:57.513Z,4.90
2023-03-27T05:55:30.045Z,4.90
2023-03-27T05:58:02.501Z,4.80
2023-03-27T06:00:37.291Z,4.80
2023-03-27T06:03:12.517Z,4.80
2023-03-27T06:05:49.017Z,4.70
2023-03-27T06:08:21.342Z,4.70
2023-03-27T06:10:54.520Z,4.70
2023-03-27T06:13:26.764Z,4.60
2023-03-27T06:15:59.050Z,4.70
2023-03-27T06:18:32.008Z,3.40
2023-03-27T06:21:07.526Z,4.60
2023-03-27T06:23:39.958Z,3.90
2023-03-27T06:26:12.297Z,4.60
2023-03-27T06:28:44.586Z,4.60
2023-03-27T06:31:17.834Z,4.60
2023-03-27T06:33:50.370Z,4.50
2023-03-27T06:36:25.275Z,4.50
2023-03-27T06:38:57.412Z,4.50
2023-03-27T06:41:29.497Z,4.50
2023-03-27T06:44:01.791Z,4.50
2023-03-27T06:46:43.093Z,4.50
2023-03-27T06:49:17.444Z,4.50
2023-03-27T06:51:52.505Z,4.50
2023-03-27T06:54:24.627Z,4.40
2023-03-27T06:56:56.821Z,4.40
2023-03-27T06:59:28.947Z,4.40
2023-03-27T07:02:01.508Z,4.50
2023-03-27T07:04:33.644Z,4.50
2023-03-27T07:07:08.342Z,4.50
2023-03-27T07:09:41.001Z,4.60
2023-03-27T07:12:13.144Z,4.60
2023-03-27T07:14:45.382Z,4.70
2023-03-27T07:17:17.571Z,4.70
2023-03-27T07:19:49.713Z,4.80
2023-03-27T07:22:24.528Z,4.80
2023-03-27T07:24:56.646Z,4.80
2023-03-27T07:27:28.755Z,4.90
2023-03-27T07:30:01.636Z,4.90
2023-03-27T07:32:37.570Z,5.00
2023-03-27T07:35:11.169Z,5.00
2023-03-27T07:37:46.830Z,5.00
2023-03-27T07:40:26.611Z,5.10
2023-03-27T07:43:07.391Z,5.10
2023-03-27T07:45:39.821Z,5.10
2023-03-27T07:48:16.366Z,5.20
2023-03-27T07:50:48.551Z,5.20
2023-03-27T07:53:33.949Z,5.20
2023-03-27T07:56:08.874Z,5.20
2023-03-27T07:58:41.177Z,5.20
2023-03-27T08:01:13.579Z,5.20
2023-03-27T08:03:47.557Z,5.20
2023-03-27T08:06:19.856Z,5.20
2023-03-27T08:08:54.772Z,5.30
2023-03-27T08:11:30.741Z,5.30
2023-03-27T08:14:03.975Z,5.30
2023-03-27T08:16:36.817Z,5.30
2023-03-27T08:19:10.483Z,5.30
2023-03-27T08:21:42.559Z,5.40
2023-03-27T08:24:17.318Z,5.40
2023-03-27T08:26:49.549Z,5.40
2023-03-27T08:29:21.650Z,5.40
2023-03-27T08:31:54.109Z,5.40
2023-03-27T08:34:26.636Z,5.40
2023-03-27T08:36:58.745Z,5.40
2023-03-27T08:39:33.421Z,5.50
2023-03-27T08:42:08.504Z,5.50
2023-03-27T08:44:40.679Z,5.50
2023-03-27T08:47:17.161Z,5.60
2023-03-27T08:49:55.082Z,5.60
2023-03-27T08:52:32.101Z,5.70
2023-03-27T08:55:15.508Z,5.70
2023-03-27T08:57:50.576Z,5.80
2023-03-27T09:00:27.970Z,5.80
2023-03-27T09:03:08.197Z,5.80
2023-03-27T09:05:44.770Z,5.90
2023-03-27T09:08:28.006Z,5.90
2023-03-27T09:11:09.487Z,6.00
2023-03-27T09:13:45.968Z,6.10
2023-03-27T09:16:22.947Z,6.20
2023-03-27T09:19:01.546Z,6.30
2023-03-27T09:21:40.270Z,6.40
2023-03-27T09:24:17.616Z,6.40
2023-03-27T09:27:04.481Z,6.40
2023-03-27T09:29:41.560Z,6.50
2023-03-27T09:32:15.715Z,6.50
2023-03-27T09:34:48.310Z,6.60
2023-03-27T09:37:20.467Z,6.60
2023-03-27T09:39:54.836Z,6.70
2023-03-27T09:42:33.476Z,6.70
2023-03-27T09:45:08.392Z,6.80
2023-03-27T09:47:45.260Z,6.90
2023-03-27T09:50:27.665Z,6.90
2023-03-27T09:53:08.763Z,6.90
2023-03-27T09:55:53.114Z,7.00
2023-03-27T09:58:32.414Z,6.90
2023-03-27T10:01:16.882Z,7.00
2023-03-27T10:03:51.146Z,6.90
2023-03-27T10:06:28.468Z,6.90
2023-03-27T10:09:07.408Z,6.90
2023-03-27T10:11:40.270Z,7.00
2023-03-27T10:14:18.969Z,7.00
2023-03-27T10:16:51.211Z,7.00
2023-03-27T10:19:27.893Z,7.10
2023-03-27T10:22:04.484Z,7.20
2023-03-27T10:24:45.820Z,7.30
2023-03-27T10:27:20.634Z,7.30
2023-03-27T10:29:55.337Z,7.30
2023-03-27T10:32:43.383Z,7.40
2023-03-27T10:35:27.491Z,7.40
2023-03-27T10:38:01.422Z,7.40
2023-03-27T10:40:37.067Z,7.40
2023-03-27T10:43:12.846Z,7.40
2023-03-27T10:45:51.905Z,7.50
2023-03-27T10:48:37.450Z,7.50
2023-03-27T10:51:43.124Z,7.60
2023-03-27T10:54:33.034Z,7.70
2023-03-27T10:57:12.639Z,7.70
2023-03-27T10:59:50.811Z,7.80
2023-03-27T11:02:28.182Z,7.90
2023-03-27T11:05:04.481Z,7.90
2023-03-27T11:07:42.659Z,7.90
2023-03-27T11:10:20.018Z,7.90
2023-03-27T11:12:56.281Z,7.90
2023-03-27T11:15:33.308Z,7.90
2023-03-27T11:18:12.375Z,7.90
2023-03-27T11:20:47.476Z,8.00
2023-03-27T11:23:22.142Z,8.10
2023-03-27T11:25:55.102Z,8.10
2023-03-27T11:28:39.803Z,8.20
2023-03-27T11:31:19.198Z,8.30
2023-03-27T11:34:00.347Z,8.30
2023-03-27T11:36:46.692Z,8.40
2023-03-27T11:39:25.426Z,8.40
2023-03-27T11:42:00.232Z,8.50
2023-03-27T11:44:32.365Z,8.60
2023-03-27T11:47:23.663Z,8.70
2023-03-27T11:50:09.090Z,8.80
2023-03-27T11:52:52.326Z,8.90
2023-03-27T11:55:33.173Z,9.00
2023-03-27T11:58:19.737Z,9.10
2023-03-27T12:01:02.028Z,9.40
2023-03-27T12:04:09.426Z,9.30
2023-03-27T12:06:58.125Z,9.50
2023-03-27T12:09:52.689Z,9.50
2023-03-27T12:12:39.075Z,9.50
2023-03-27T12:15:26.845Z,9.50
2023-03-27T12:18:05.749Z,9.50
2023-03-27T12:20:53.413Z,9.50
2023-03-27T12:23:57.951Z,9.50
2023-03-27T12:27:03.164Z,9.40
2023-03-27T12:29:53.746Z,9.20
2023-03-27T12:32:54.766Z,9.00
2023-03-27T12:35:31.641Z,8.70
2023-03-27T12:38:08.503Z,8.50
2023-03-27T12:40:49.792Z,8.30
2023-03-27T12:43:27.779Z,8.30
2023-03-27T12:46:11.498Z,8.40
2023-03-27T12:48:52.878Z,8.80
2023-03-27T12:51:38.275Z,9.40
2023-03-27T12:54:25.183Z,9.70
2023-03-27T12:57:06.796Z,9.90
2023-03-27T13:02:52.282Z,11.30
2023-03-27T13:08:45.578Z,12.60
2023-03-27T13:11:35.993Z,13.40
2023-03-27T13:14:22.781Z,13.70
2023-03-27T13:17:21.333Z,13.50
2023-03-27T13:19:59.707Z,13.00
2023-03-27T13:22:48.312Z,12.40
2023-03-27T13:25:43.785Z,11.80
2023-03-27T13:28:31.527Z,11.30
2023-03-27T13:31:06.054Z,10.80
2023-03-27T13:33:45.783Z,10.50
2023-03-27T13:36:20.925Z,10.20
2023-03-27T13:39:24.865Z,10.00
2023-03-27T13:44:47.162Z,9.50
2023-03-27T13:47:49.224Z,9.70
2023-03-27T13:51:03.341Z,10.00
2023-03-27T13:53:56.755Z,10.40
2023-03-27T13:56:48.821Z,10.60
2023-03-27T13:59:58.585Z,10.30
2023-03-27T14:02:58.507Z,10.00
2023-03-27T14:06:14.952Z,9.60
2023-03-27T14:08:49.342Z,9.30
2023-03-27T14:11:38.135Z,8.80
2023-03-27T14:14:40.683Z,8.50
2023-03-27T14:17:31.796Z,7.70
2023-03-27T14:20:21.024Z,7.60
2023-03-27T14:22:58.162Z,7.50
2023-03-27T14:25:34.397Z,7.50
2023-03-27T14:28:10.497Z,7.50
2023-03-27T14:30:45.531Z,7.90
2023-03-27T14:33:20.261Z,8.20
2023-03-27T14:35:54.841Z,8.30
2023-03-27T14:38:31.084Z,8.20
2023-03-27T14:41:05.288Z,8.10
2023-03-27T14:43:37.462Z,8.20
2023-03-27T14:46:11.974Z,8.10
2023-03-27T14:48:46.221Z,8.30
2023-03-27T14:51:20.845Z,8.50
2023-03-27T14:54:02.432Z,8.70
2023-03-27T14:56:38.175Z,9.00
2023-03-27T14:59:14.012Z,9.30
2023-03-27T15:01:47.601Z,9.50
2023-03-27T15:04:19.694Z,9.60
2023-03-27T15:06:56.165Z,9.60
2023-03-27T15:09:31.150Z,9.50
2023-03-27T15:12:04.356Z,9.40
2023-03-27T15:14:37.879Z,9.20
2023-03-27T15:17:12.483Z,9.00
2023-03-27T15:19:49.132Z,8.80
2023-03-27T15:22:27.830Z,8.50
2023-03-27T15:25:05.687Z,8.40
2023-03-27T15:27:40.886Z,8.30
2023-03-27T15:30:25.486Z,8.30
2023-03-27T15:33:02.273Z,8.20
2023-03-27T15:35:37.046Z,8.20
2023-03-27T15:38:14.300Z,8.30
2023-03-27T15:41:00.673Z,8.30
2023-03-27T15:43:34.320Z,8.30
2023-03-27T15:46:17.296Z,8.30
2023-03-27T15:48:55.544Z,8.20
2023-03-27T15:51:30.064Z,8.10
2023-03-27T15:54:29.246Z,8.10
2023-03-27T15:57:10.148Z,8.00
2023-03-27T15:59:52.560Z,7.90
2023-03-27T16:02:26.699Z,7.80
2023-03-27T16:04:59.529Z,7.80
2023-03-27T16:07:43.884Z,7.70
2023-03-27T16:10:28.967Z,7.60
2023-03-27T16:13:03.198Z,7.60
2023-03-27T16:15:37.586Z,7.50
2023-03-27T16:18:18.862Z,7.40
2023-03-27T16:20:51.168Z,7.30
2023-03-27T16:23:23.269Z,7.20
2023-03-27T16:25:58.910Z,7.10
2023-03-27T16:28:31.703Z,7.10
2023-03-27T16:31:12.085Z,7.00
2023-03-27T16:33:46.179Z,7.00
2023-03-27T16:36:20.862Z,7.00
2023-03-27T16:38:53.085Z,7.00
2023-03-27T16:41:27.854Z,7.00
2023-03-27T16:43:59.799Z,6.90
2023-03-27T16:46:32.571Z,6.90
2023-03-27T16:49:04.905Z,6.90
2023-03-27T16:51:37.015Z,6.80
2023-03-27T16:54:09.137Z,6.80
2023-03-27T16:56:43.735Z,6.70
2023-03-27T16:59:16.727Z,6.70
2023-03-27T17:01:48.738Z,6.70
2023-03-27T17:04:21.050Z,6.70
2023-03-27T17:06:53.021Z,6.60
2023-03-27T17:09:24.910Z,6.70
2023-03-27T17:11:59.580Z,6.70
2023-03-27T17:14:31.529Z,6.70
2023-03-27T17:17:03.546Z,6.60
2023-03-27T17:19:35.682Z,6.60
2023-03-27T17:22:07.596Z,6.60
2023-03-27T17:24:53.426Z,6.60
2023-03-27T17:27:30.775Z,6.60
2023-03-27T17:30:04.007Z,6.60
2023-03-27T17:32:35.916Z,6.60
2023-03-27T17:35:08.360Z,6.60
2023-03-27T17:37:40.407Z,6.60
2023-03-27T17:40:12.659Z,6.60
2023-03-27T17:42:47.207Z,6.60
2023-03-27T17:45:19.105Z,6.60
2023-03-27T17:47:51.227Z,6.60
2023-03-27T17:50:23.152Z,6.60
2023-03-27T17:52:55.100Z,6.60
2023-03-27T17:55:26.998Z,6.60
2023-03-27T17:58:08.785Z,6.60
2023-03-27T18:00:41.635Z,6.50
2023-03-27T18:03:13.884Z,6.60
2023-03-27T18:05:45.871Z,6.60
2023-03-27T18:08:18.264Z,6.60
2023-03-27T18:10:50.630Z,6.60
2023-03-27T18:13:25.538Z,6.50
2023-03-27T18:15:58.426Z,6.50
2023-03-27T18:18:30.669Z,6.50
2023-03-27T18:21:02.575Z,6.60
2023-03-27T18:23:35.302Z,6.60
2023-03-27T18:26:07.564Z,6.60
2023-03-27T18:28:42.073Z,6.50
2023-03-27T18:31:14.077Z,6.50
2023-03-27T18:33:46.093Z,6.50
2023-03-27T18:36:18.033Z,6.50
2023-03-27T18:38:50.520Z,6.50
2023-03-27T18:41:22.392Z,6.50
2023-03-27T18:43:56.860Z,6.50
2023-03-27T18:46:29.026Z,6.50
2023-03-27T18:49:10.300Z,6.50
2023-03-27T18:51:49.690Z,6.50
2023-03-27T18:54:21.755Z,6.40
2023-03-27T18:56:53.918Z,6.40
2023-03-27T18:59:28.634Z,6.30
2023-03-27T19:02:00.908Z,6.30
2023-03-27T19:04:33.033Z,6.20
2023-03-27T19:07:06.567Z,6.20
2023-03-27T19:09:41.892Z,6.10
2023-03-27T19:12:14.241Z,6.10
2023-03-27T19:14:48.967Z,6.10
2023-03-27T19:17:21.271Z,6.00
2023-03-27T19:19:55.021Z,6.00
2023-03-27T19:22:27.127Z,5.90
2023-03-27T19:24:59.230Z,5.90
2023-03-27T19:27:38.508Z,6.10
2023-03-27T19:30:15.002Z,6.30
2023-03-27T19:32:47.135Z,6.70
2023-03-27T19:35:20.289Z,6.90
2023-03-27T19:37:52.596Z,7.20
2023-03-27T19:40:24.841Z,7.50
2023-03-27T19:42:56.965Z,7.80
2023-03-27T19:45:31.654Z,8.00
2023-03-27T19:48:04.238Z,8.20
2023-03-27T19:50:36.435Z,8.40
2023-03-27T19:53:09.165Z,8.50
2023-03-27T19:55:42.385Z,8.70
2023-03-27T19:58:14.590Z,8.80
2023-03-27T20:00:50.907Z,8.90
2023-03-27T20:03:24.456Z,9.00
2023-03-27T20:06:07.640Z,9.00
2023-03-27T20:08:41.068Z,9.10
2023-03-27T20:11:13.152Z,9.20
2023-03-27T20:13:55.414Z,9.20
2023-03-27T20:16:31.011Z,9.20
2023-03-27T20:19:05.697Z,9.20
2023-03-27T20:21:39.123Z,9.30
2023-03-27T20:24:12.180Z,9.30
2023-03-27T20:26:48.295Z,9.30
2023-03-27T20:29:21.408Z,9.40
2023-03-27T20:31:56.030Z,9.40
2023-03-27T20:34:28.127Z,9.40
2023-03-27T20:37:01.019Z,9.40
2023-03-27T20:39:33.715Z,9.40
2023-03-27T20:42:07.841Z,9.40
2023-03-27T20:44:39.727Z,9.40
2023-03-27T20:47:15.382Z,9.40
2023-03-27T20:49:47.649Z,9.40
2023-03-27T20:52:19.931Z,9.40
2023-03-27T20:54:51.857Z,9.30
2023-03-27T20:57:24.229Z,9.20
2023-03-27T20:59:56.632Z,9.20
2023-03-27T21:02:31.437Z,9.10
2023-03-27T21:05:03.717Z,9.00
2023-03-27T21:07:38.266Z,9.00
2023-03-27T21:10:10.940Z,8.90
2023-03-27T21:12:43.152Z,8.90
2023-03-27T21:15:15.196Z,8.80
2023-03-27T21:17:49.821Z,8.80
2023-03-27T21:20:21.740Z,8.80
2023-03-27T21:22:53.613Z,8.80
2023-03-27T21:25:25.556Z,8.80
2023-03-27T21:27:57.523Z,8.70
2023-03-27T21:30:47.129Z,8.70
2023-03-27T21:33:23.105Z,8.70
2023-03-27T21:35:55.032Z,8.70
2023-03-27T21:38:26.935Z,8.70
2023-03-27T21:41:00.990Z,8.70
2023-03-27T21:43:33.154Z,8.70
2023-03-27T21:46:05.469Z,8.70
2023-03-27T21:48:44.796Z,8.70
2023-03-27T21:51:16.766Z,8.70
2023-03-27T21:53:48.713Z,8.60
2023-03-27T21:56:20.872Z,8.60
2023-03-27T21:58:52.917Z,8.50
2023-03-27T22:01:24.981Z,8.40
2023-03-27T22:04:02.233Z,8.40
2023-03-27T22:06:34.385Z,8.40
2023-03-27T22:09:06.294Z,8.30
2023-03-27T22:11:38.240Z,8.20
2023-03-27T22:14:10.351Z,8.10
2023-03-27T22:16:43.600Z,7.90
2023-03-27T22:19:18.136Z,7.60
2023-03-27T22:21:50.340Z,7.30
2023-03-27T22:24:22.583Z,7.10
2023-03-27T22:26:54.772Z,6.80
2023-03-27T22:29:26.909Z,6.50
2023-03-27T22:31:59.251Z,6.30
2023-03-27T22:34:33.978Z,6.10
2023-03-27T22:37:06.878Z,5.90
2023-03-27T22:39:39.058Z,5.70
2023-03-27T22:42:11.491Z,5.50
2023-03-27T22:44:43.846Z,5.40
2023-03-27T22:47:16.207Z,5.30
2023-03-27T22:49:51.184Z,5.20
2023-03-27T22:52:23.287Z,5.10
2023-03-27T22:54:55.609Z,5.00
2023-03-27T22:57:27.703Z,5.00
2023-03-27T22:59:59.799Z,5.00
2023-03-27T23:02:31.941Z,4.90
2023-03-27T23:05:07.404Z,4.90
2023-03-27T23:07:39.478Z,4.90
2023-03-27T23:10:11.674Z,4.80
2023-03-27T23:12:43.762Z,4.80
2023-03-27T23:15:16.165Z,4.70
2023-03-27T23:18:02.843Z,4.70
2023-03-27T23:20:37.566Z,4.70
2023-03-27T23:23:09.635Z,4.60
2023-03-27T23:25:42.691Z,4.60
2023-03-27T23:28:14.873Z,4.60
2023-03-27T23:30:53.172Z,4.60
2023-03-27T23:33:25.500Z,4.50
2023-03-27T23:36:06.193Z,4.50
2023-03-27T23:38:39.032Z,4.50
2023-03-27T23:41:12.848Z,4.40
2023-03-27T23:43:45.449Z,4.40
2023-03-27T23:46:17.755Z,4.40
2023-03-27T23:48:49.945Z,4.40
2023-03-27T23:51:24.639Z,4.40
2023-03-27T23:53:56.704Z,4.30
2023-03-27T23:56:28.759Z,4.30
2023-03-27T23:59:00.864Z,4.30
